EHMZ weather

Midden-Zeeland Airport
Middelburg, Zeeland, Netherlands

Public forecast

Using degrees Celsius for public forecast. Weather courtesy of forecast.io.

Closest aviation weather report (METAR) to Midden-Zeeland Airport

Closest report is Woensdrecht Air Base, 23.2 nm (42.9 km) E. Retrieved 2020/05/29 10:55 UTC (13 minutes ago):

EHWO 291055Z AUTO VRB07KT 9999 NCD 20/00 Q1028 BLU NOSIG

Closest aviation forecast (TAF) to Midden-Zeeland Airport

Closest forecast is Woensdrecht Air Base, 23.2 nm (42.9 km) E. Retrieved 2020/05/29 09:06 UTC (2 hours ago):

TAF EHWO 290829Z 2909/2921 06007KT CAVOK